Time;durP1;ratioP1;P1;durP2;ratioP2;P2;SDS_P1;SDS_P2;PMS_P1;PMS_P2;Temp;Humidity;BMP_temperature;BMP_pressure;BME280_temperature;BME280_humidity;BME280_pressure;Samples;Min_cycle;Max_cycle;Signal;HPM_P1;HPM_P2
2024/01/18 00:04:33;;;;;;;22.10;11.90;;;;;;;12.84;100.00;101588.34;10520073;28;20064;-78
2024/01/18 00:09:56;;;;;;;23.73;14.00;;;;;;;12.78;100.00;101585.56;10515150;28;20496;-80
2024/01/18 00:15:18;;;;;;;33.30;27.92;;;;;;;12.75;100.00;101586.41;10516179;28;20054;-81
2024/01/18 00:20:42;;;;;;;39.20;30.88;;;;;;;12.42;100.00;101587.44;10533762;28;20044;-80
2024/01/18 00:26:06;;;;;;;30.15;16.80;;;;;;;12.32;100.00;101586.38;10533732;28;20055;-78
2024/01/18 00:31:30;;;;;;;23.48;14.32;;;;;;;12.22;100.00;101579.06;10518177;28;20044;-80
2024/01/18 00:36:55;;;;;;;25.17;15.02;;;;;;;12.10;100.00;101582.34;10533900;28;20072;-80
2024/01/18 00:42:18;;;;;;;36.95;22.27;;;;;;;12.13;100.00;101595.66;10533512;28;20050;-80
2024/01/18 00:47:42;;;;;;;25.30;12.07;;;;;;;12.11;100.00;101596.47;10529578;28;20369;-80
2024/01/18 00:53:06;;;;;;;16.30;6.97;;;;;;;12.20;100.00;101591.41;10532020;28;20120;-81
2024/01/18 00:58:29;;;;;;;18.27;8.13;;;;;;;12.36;100.00;101593.50;10530533;28;20044;-80
2024/01/18 01:03:51;;;;;;;16.67;5.78;;;;;;;12.36;100.00;101589.13;10529840;28;20047;-79
2024/01/18 01:09:16;;;;;;;16.45;6.63;;;;;;;12.41;100.00;101581.25;10508572;28;20068;-79
2024/01/18 01:14:38;;;;;;;10.25;4.30;;;;;;;12.52;100.00;101586.81;10528385;28;20044;-78
2024/01/18 01:20:01;;;;;;;13.30;4.32;;;;;;;12.44;100.00;101589.28;10514494;28;20055;-78
2024/01/18 01:25:25;;;;;;;19.27;5.50;;;;;;;12.40;100.00;101574.19;10511349;28;20132;-78
2024/01/18 01:30:48;;;;;;;19.75;7.72;;;;;;;12.37;100.00;101568.81;10528415;28;20101;-78
2024/01/18 01:36:11;;;;;;;16.30;4.53;;;;;;;12.53;100.00;101563.00;10523981;28;20066;-78
2024/01/18 01:41:35;;;;;;;17.73;7.22;;;;;;;12.68;100.00;101568.59;10518271;28;20040;-79
2024/01/18 01:46:57;;;;;;;38.42;22.45;;;;;;;12.57;100.00;101559.53;10523538;28;20105;-78
2024/01/18 01:52:27;;;;;;;14.65;5.90;;;;;;;12.61;100.00;101556.06;10523335;28;20047;-78
2024/01/18 01:57:54;;;;;;;10.43;5.63;;;;;;;12.74;100.00;101550.16;10522434;28;20044;-78
2024/01/18 02:03:16;;;;;;;24.08;9.68;;;;;;;12.91;100.00;101550.50;10522134;28;20054;-78
2024/01/18 02:08:39;;;;;;;15.55;4.22;;;;;;;12.98;100.00;101552.41;10536169;28;20047;-80
2024/01/18 02:14:04;;;;;;;11.75;3.70;;;;;;;12.90;100.00;101546.06;10534739;28;20040;-78
2024/01/18 02:19:26;;;;;;;9.13;2.95;;;;;;;13.00;100.00;101540.03;10482240;28;20044;-78
2024/01/18 02:24:52;;;;;;;58.92;35.15;;;;;;;13.15;100.00;101550.06;10535609;28;20048;-78
2024/01/18 02:30:16;;;;;;;19.35;8.35;;;;;;;13.15;100.00;101558.03;10521238;28;20638;-78
2024/01/18 02:35:39;;;;;;;13.13;5.30;;;;;;;13.12;100.00;101557.94;10534538;28;20491;-78
2024/01/18 02:41:01;;;;;;;16.10;7.25;;;;;;;13.12;100.00;101542.06;10511616;28;20052;-78
2024/01/18 02:46:26;;;;;;;34.60;31.23;;;;;;;13.24;100.00;101546.69;10514554;28;20036;-78
2024/01/18 02:51:49;;;;;;;10.13;5.35;;;;;;;13.19;100.00;101541.31;10519258;28;20052;-79
2024/01/18 02:57:11;;;;;;;11.25;7.68;;;;;;;13.15;100.00;101529.75;10534509;28;20048;-79
2024/01/18 03:02:35;;;;;;;25.52;17.13;;;;;;;13.09;100.00;101520.78;10547294;28;20456;-79
2024/01/18 03:07:58;;;;;;;29.50;20.23;;;;;;;13.16;100.00;101530.66;10518770;28;20047;-80
2024/01/18 03:13:20;;;;;;;25.63;17.77;;;;;;;13.24;100.00;101537.00;10506343;28;20058;-79
2024/01/18 03:18:46;;;;;;;10.90;6.53;;;;;;;13.23;100.00;101545.81;10532913;28;20547;-79
2024/01/18 03:24:08;;;;;;;10.82;3.83;;;;;;;13.24;100.00;101549.34;10540005;28;20083;-79
2024/01/18 03:29:31;;;;;;;18.13;10.65;;;;;;;13.26;100.00;101532.56;10517354;28;20577;-79
2024/01/18 03:34:55;;;;;;;11.32;4.90;;;;;;;13.40;100.00;101538.13;10518906;28;20052;-79
2024/01/18 03:40:18;;;;;;;16.90;5.72;;;;;;;13.56;100.00;101548.13;10544791;28;20096;-78
2024/01/18 03:45:40;;;;;;;15.55;5.38;;;;;;;13.57;100.00;101540.19;10518656;28;20108;-79
2024/01/18 03:51:04;;;;;;;13.13;3.80;;;;;;;13.70;100.00;101549.25;10514167;28;20056;-79
2024/01/18 03:56:30;;;;;;;16.40;3.75;;;;;;;14.00;100.00;101542.59;10516930;28;20048;-80
2024/01/18 04:01:53;;;;;;;16.00;4.13;;;;;;;14.03;100.00;101545.28;10517305;28;20492;-79
2024/01/18 04:07:20;;;;;;;12.98;4.53;;;;;;;14.06;100.00;101547.97;10507243;28;20132;-79
2024/01/18 04:12:44;;;;;;;13.63;3.88;;;;;;;14.35;100.00;101550.16;10524615;28;20547;-79
2024/01/18 04:18:08;;;;;;;17.10;4.20;;;;;;;14.76;100.00;101555.13;10530440;28;20035;-79
2024/01/18 04:23:32;;;;;;;19.13;5.22;;;;;;;14.99;100.00;101560.69;10516070;28;20048;-79
2024/01/18 04:28:56;;;;;;;14.20;4.70;;;;;;;15.06;100.00;101568.72;10523134;28;20177;-79
2024/01/18 04:34:18;;;;;;;14.18;4.00;;;;;;;15.20;100.00;101567.97;10514946;28;20043;-78
2024/01/18 04:39:43;;;;;;;13.57;4.25;;;;;;;15.23;100.00;101576.00;10499370;28;20135;-80
2024/01/18 04:45:07;;;;;;;13.43;5.07;;;;;;;15.32;100.00;101578.72;10517503;28;20056;-79
2024/01/18 04:50:29;;;;;;;15.30;4.47;;;;;;;15.15;100.00;101573.25;10509786;28;20496;-79
2024/01/18 04:55:53;;;;;;;14.02;3.65;;;;;;;15.02;100.00;101580.22;10534861;28;20040;-80
2024/01/18 05:01:17;;;;;;;16.02;3.75;;;;;;;15.05;100.00;101574.94;10513943;28;20496;-79
2024/01/18 05:06:40;;;;;;;14.75;4.10;;;;;;;15.12;100.00;101571.44;10524643;28;20044;-80
2024/01/18 05:12:04;;;;;;;13.68;3.92;;;;;;;15.01;100.00;101581.09;10514374;28;20040;-80
2024/01/18 05:17:34;;;;;;;11.57;4.25;;;;;;;14.93;100.00;101580.13;10517995;28;20044;-80
2024/01/18 05:22:57;;;;;;;13.35;4.55;;;;;;;14.82;100.00;101584.44;10516806;28;20136;-80
2024/01/18 05:28:24;;;;;;;13.10;4.07;;;;;;;14.97;100.00;101575.72;10511349;28;20442;-79
2024/01/18 05:33:46;;;;;;;16.27;4.13;;;;;;;15.10;100.00;101577.63;10514025;28;20085;-80
2024/01/18 05:39:09;;;;;;;16.13;3.97;;;;;;;15.23;100.00;101571.53;10508575;28;20040;-80
2024/01/18 05:44:33;;;;;;;14.20;3.70;;;;;;;15.26;100.00;101571.59;10527768;28;20118;-79
2024/01/18 05:49:55;;;;;;;9.02;3.63;;;;;;;15.36;100.00;101578.75;10541820;28;20056;-80
2024/01/18 05:55:18;;;;;;;16.35;3.85;;;;;;;15.39;100.00;101581.47;10522459;28;20056;-80
2024/01/18 06:00:42;;;;;;;16.77;4.25;;;;;;;15.54;100.00;101584.31;10511058;28;20055;-80
2024/01/18 06:06:05;;;;;;;20.83;4.30;;;;;;;15.72;100.00;101580.88;10493017;28;20089;-80
2024/01/18 06:11:27;;;;;;;10.65;3.67;;;;;;;15.95;100.00;101583.69;10507753;28;20043;-79
2024/01/18 06:16:51;;;;;;;15.30;4.35;;;;;;;16.20;100.00;101584.78;10527428;28;20043;-80
2024/01/18 06:22:13;;;;;;;17.13;3.78;;;;;;;16.40;100.00;101585.78;10535642;28;20048;-80
2024/01/18 06:27:36;;;;;;;13.75;4.00;;;;;;;16.47;100.00;101579.59;10503276;28;20051;-79
2024/01/18 06:33:04;;;;;;;14.30;4.70;;;;;;;17.71;100.00;101578.13;10518890;28;20051;-80
2024/01/18 06:38:27;;;;;;;12.70;4.07;;;;;;;19.71;100.00;101549.53;10534150;28;20131;-80
2024/01/18 06:43:50;;;;;;;10.32;2.53;;;;;;;21.79;100.00;101557.53;10534789;28;20048;-79
2024/01/18 06:49:14;;;;;;;10.80;2.70;;;;;;;22.15;100.00;101547.91;10548453;28;20044;-79
2024/01/18 06:54:37;;;;;;;14.05;2.60;;;;;;;22.35;100.00;101550.19;10517319;28;20119;-79
2024/01/18 07:00:00;;;;;;;12.40;3.15;;;;;;;23.04;100.00;101547.78;10513322;28;20060;-79
2024/01/18 07:05:24;;;;;;;14.63;3.35;;;;;;;23.44;100.00;101539.66;10527902;28;20039;-80
2024/01/18 07:10:48;;;;;;;9.43;2.70;;;;;;;23.91;100.00;101532.16;10541217;28;20126;-80
2024/01/18 07:16:10;;;;;;;11.63;3.33;;;;;;;24.16;100.00;101539.53;10543857;28;20571;-80
2024/01/18 07:21:34;;;;;;;11.15;3.78;;;;;;;23.72;99.93;101538.06;10517939;28;20055;-82
2024/01/18 07:26:56;;;;;;;15.27;3.65;;;;;;;23.20;100.00;101524.09;10519295;28;20044;-82
2024/01/18 07:32:19;;;;;;;11.60;4.28;;;;;;;23.38;100.00;101515.53;10528775;28;20089;-80
2024/01/18 07:37:43;;;;;;;17.10;4.00;;;;;;;23.50;100.00;101534.13;10519811;28;20109;-80
2024/01/18 07:43:06;;;;;;;16.27;3.95;;;;;;;23.30;100.00;101517.56;10527983;28;20052;-81
2024/01/18 07:48:31;;;;;;;10.48;3.47;;;;;;;23.65;98.38;101527.47;10503723;28;20043;-80
2024/01/18 07:53:55;;;;;;;11.15;3.85;;;;;;;23.86;93.87;101521.50;10531608;28;20060;-81
2024/01/18 07:59:18;;;;;;;11.70;3.45;;;;;;;24.07;91.37;101533.53;10532655;28;20500;-81
2024/01/18 08:04:42;;;;;;;14.40;4.03;;;;;;;23.93;90.31;101519.53;10517842;28;20044;-80
2024/01/18 08:10:09;;;;;;;11.77;3.85;;;;;;;24.26;88.08;101532.13;10516884;28;20046;-87
2024/01/18 08:15:31;;;;;;;11.37;3.97;;;;;;;24.83;83.42;101531.28;10531665;28;20664;-88
2024/01/18 08:20:54;;;;;;;13.90;4.78;;;;;;;24.94;81.56;101529.19;10533897;28;20051;-84
2024/01/18 08:26:20;;;;;;;17.38;5.88;;;;;;;24.63;87.17;101516.59;10517338;28;20121;-86
2024/01/18 08:31:45;;;;;;;12.95;4.82;;;;;;;24.61;89.65;101510.34;10517213;28;20389;-83
2024/01/18 08:37:16;;;;;;;15.18;4.20;;;;;;;24.49;91.89;101499.03;10529885;28;20071;-85
2024/01/18 08:42:49;;;;;;;10.65;3.75;;;;;;;24.56;92.69;101490.69;10523225;28;20052;-83
2024/01/18 08:48:11;;;;;;;11.52;4.40;;;;;;;24.43;94.45;101510.91;10512596;28;20048;-81
2024/01/18 08:53:36;;;;;;;16.63;5.57;;;;;;;24.89;90.18;101506.78;10516802;28;20566;-83
2024/01/18 08:59:02;;;;;;;16.67;4.50;;;;;;;25.20;83.73;101510.34;10513249;28;20044;-81
2024/01/18 09:04:25;;;;;;;10.23;4.72;;;;;;;25.63;81.53;101498.06;10530798;28;20044;-84
2024/01/18 09:09:48;;;;;;;7.70;2.67;;;;;;;25.69;77.54;101487.91;10533609;28;20143;-83
2024/01/18 09:15:12;;;;;;;8.38;3.22;;;;;;;25.21;77.95;101506.66;10529909;28;20544;-84
2024/01/18 09:20:35;;;;;;;8.27;3.15;;;;;;;25.68;75.75;101512.31;10529898;28;20067;-82
2024/01/18 09:25:57;;;;;;;11.75;2.78;;;;;;;25.74;72.09;101503.97;10515918;28;20058;-82
2024/01/18 09:31:22;;;;;;;15.77;7.35;;;;;;;26.01;71.94;101511.13;10514787;28;20056;-83
2024/01/18 09:36:44;;;;;;;10.13;4.57;;;;;;;25.59;72.98;101501.84;10515033;28;20055;-82
2024/01/18 09:42:14;;;;;;;15.20;6.20;;;;;;;26.35;65.80;101475.59;10529462;28;20051;-82
2024/01/18 09:47:42;;;;;;;12.75;3.65;;;;;;;25.60;70.42;101473.84;10516339;28;20056;-83
2024/01/18 09:53:08;;;;;;;14.40;5.30;;;;;;;25.65;71.27;101458.34;10519268;28;20151;-83
2024/01/18 09:58:32;;;;;;;14.48;5.40;;;;;;;25.76;69.69;101440.78;10537254;28;20044;-82
2024/01/18 10:03:56;;;;;;;11.13;3.25;;;;;;;25.46;70.23;101446.38;10522834;28;20045;-80
2024/01/18 10:09:19;;;;;;;10.20;3.30;;;;;;;25.17;73.98;101445.53;10520417;28;20477;-80
2024/01/18 10:14:42;;;;;;;9.90;3.58;;;;;;;26.39;61.62;101417.63;10549684;28;20040;-81
2024/01/18 10:20:13;;;;;;;20.05;10.77;;;;;;;25.68;62.51;101414.94;10536141;28;20535;-82
2024/01/18 10:25:41;;;;;;;12.65;3.92;;;;;;;25.82;59.25;101385.56;10534763;28;20039;-81
2024/01/18 10:31:03;;;;;;;8.60;2.58;;;;;;;25.70;59.82;101402.25;10531105;28;20040;-83
2024/01/18 10:36:27;;;;;;;9.32;2.70;;;;;;;25.80;59.70;101414.47;10526880;28;20048;-80
2024/01/18 10:41:50;;;;;;;7.45;4.88;;;;;;;25.93;59.37;101404.97;10514254;28;20097;-83
2024/01/18 10:47:15;;;;;;;17.02;5.72;;;;;;;25.26;62.55;101388.47;10528814;28;20067;-83
2024/01/18 10:52:41;;;;;;;13.05;5.82;;;;;;;24.85;66.58;101392.56;10509455;28;20097;-80
2024/01/18 10:58:07;;;;;;;10.95;2.88;;;;;;;24.83;67.31;101388.13;10508913;28;20056;-80
2024/01/18 11:03:30;;;;;;;8.65;2.65;;;;;;;25.09;64.83;101374.66;10520392;28;20105;-84
2024/01/18 11:08:56;;;;;;;12.93;3.55;;;;;;;24.49;70.19;101373.00;10532222;28;20090;-84
2024/01/18 11:14:20;;;;;;;15.32;4.82;;;;;;;24.38;71.59;101368.91;10533176;28;20047;-87
2024/01/18 11:19:43;;;;;;;12.18;3.58;;;;;;;23.95;78.63;101372.00;10534620;28;20104;-82
2024/01/18 11:25:10;;;;;;;9.63;3.33;;;;;;;24.49;72.42;101377.53;10534738;28;20044;-83
2024/01/18 11:30:35;;;;;;;6.43;2.55;;;;;;;24.45;71.22;101349.75;10549764;28;20051;-82
2024/01/18 11:35:58;;;;;;;7.47;2.25;;;;;;;24.34;72.54;101345.66;10541510;28;20039;-83
2024/01/18 11:41:26;;;;;;;11.80;2.28;;;;;;;23.79;78.62;101340.09;10518528;28;20052;-84
2024/01/18 11:46:49;;;;;;;8.68;3.55;;;;;;;23.82;82.87;101331.03;10531535;28;20077;-83
2024/01/18 11:52:13;;;;;;;7.20;2.63;;;;;;;23.41;89.97;101349.25;10518693;28;20048;-82
2024/01/18 11:57:37;;;;;;;6.18;3.05;;;;;;;23.40;89.83;101335.81;10532216;28;20105;-82
2024/01/18 12:03:03;;;;;;;18.95;7.05;;;;;;;22.76;98.49;101339.34;10519630;28;20055;-81
2024/01/18 12:08:25;;;;;;;19.75;5.07;;;;;;;22.42;100.00;101347.34;10521065;28;20385;-85
2024/01/18 12:13:50;;;;;;;13.45;4.20;;;;;;;22.21;100.00;101322.72;10514795;28;20559;-84
2024/01/18 12:19:12;;;;;;;15.07;6.45;;;;;;;21.88;100.00;101323.44;10501109;28;20312;-85
2024/01/18 12:24:36;;;;;;;13.73;5.35;;;;;;;21.57;100.00;101325.91;10529768;28;20052;-87
2024/01/18 12:30:03;;;;;;;12.38;3.25;;;;;;;21.47;100.00;101326.97;10506134;28;20048;-80
2024/01/18 12:35:25;;;;;;;13.93;3.75;;;;;;;21.45;100.00;101332.41;10528905;28;20052;-80
2024/01/18 12:40:48;;;;;;;18.30;3.67;;;;;;;21.30;100.00;101342.56;10509596;28;20055;-80
2024/01/18 12:46:13;;;;;;;14.02;4.30;;;;;;;21.31;100.00;101331.78;10504600;28;20048;-82
2024/01/18 12:51:36;;;;;;;13.32;3.67;;;;;;;21.04;100.00;101321.53;10505788;28;20464;-83
2024/01/18 12:57:00;;;;;;;11.82;3.17;;;;;;;20.98;100.00;101325.22;10513778;28;20044;-81
2024/01/18 13:02:27;;;;;;;10.68;2.92;;;;;;;20.93;100.00;101316.38;10512194;28;20044;-81
2024/01/18 13:07:50;;;;;;;11.97;3.63;;;;;;;20.97;100.00;101310.03;10516204;28;20040;-83
2024/01/18 13:13:12;;;;;;;15.02;4.03;;;;;;;20.86;100.00;101293.22;10515135;28;20056;-82
2024/01/18 13:18:39;;;;;;;20.90;7.22;;;;;;;20.73;100.00;101297.06;10526922;28;20420;-83
2024/01/18 13:24:02;;;;;;;9.93;3.78;;;;;;;20.50;100.00;101288.50;10531747;28;20048;-83
2024/01/18 13:29:25;;;;;;;13.75;3.92;;;;;;;20.46;100.00;101285.00;10512337;28;20080;-81
2024/01/18 13:34:49;;;;;;;18.05;4.82;;;;;;;20.31;100.00;101271.78;10507787;28;20054;-78
2024/01/18 13:40:12;;;;;;;14.38;2.70;;;;;;;20.20;100.00;101266.59;10514815;28;20044;-84
2024/01/18 13:45:35;;;;;;;13.10;4.00;;;;;;;20.10;100.00;101250.66;10527984;28;20098;-79
2024/01/18 13:50:59;;;;;;;11.60;3.72;;;;;;;19.91;100.00;101268.84;10513773;28;20048;-81
2024/01/18 13:56:23;;;;;;;13.80;3.30;;;;;;;19.84;100.00;101285.91;10528507;28;20523;-79
2024/01/18 14:01:45;;;;;;;16.90;5.00;;;;;;;19.82;100.00;101248.41;10512846;28;20153;-79
2024/01/18 14:07:10;;;;;;;22.17;3.63;;;;;;;19.73;100.00;101256.59;10518497;28;20040;-78
2024/01/18 14:12:32;;;;;;;15.02;3.67;;;;;;;19.65;100.00;101246.88;10522105;28;20463;-81
2024/01/18 14:17:55;;;;;;;15.80;3.90;;;;;;;19.37;100.00;101259.72;10508548;28;20044;-79
2024/01/18 14:23:19;;;;;;;22.42;6.35;;;;;;;19.26;100.00;101238.44;10528634;28;20043;-80
2024/01/18 14:28:41;;;;;;;16.48;3.50;;;;;;;19.17;100.00;101245.69;10485584;28;20121;-79
2024/01/18 14:34:04;;;;;;;18.05;3.55;;;;;;;19.13;100.00;101233.25;10513006;28;20074;-81
2024/01/18 14:39:28;;;;;;;20.63;4.47;;;;;;;19.10;100.00;101252.88;10530512;28;20113;-79
2024/01/18 14:44:50;;;;;;;13.90;3.35;;;;;;;18.99;100.00;101258.38;10519484;28;20404;-80
2024/01/18 14:50:13;;;;;;;24.85;4.07;;;;;;;18.81;100.00;101263.03;10520348;28;20073;-82
2024/01/18 14:55:38;;;;;;;18.17;4.63;;;;;;;18.72;100.00;101264.00;10528471;28;20036;-81
2024/01/18 15:01:00;;;;;;;18.98;3.95;;;;;;;18.63;100.00;101273.03;10524289;28;20060;-80
2024/01/18 15:06:23;;;;;;;20.27;3.72;;;;;;;18.55;100.00;101265.94;10509942;28;20218;-80
2024/01/18 15:11:47;;;;;;;19.77;3.72;;;;;;;18.50;100.00;101251.72;10517930;28;20063;-84
2024/01/18 15:17:09;;;;;;;18.50;3.72;;;;;;;18.38;100.00;101267.88;10526128;28;20539;-82
2024/01/18 15:22:32;;;;;;;16.40;3.10;;;;;;;18.35;100.00;101254.53;10526419;28;20507;-81
2024/01/18 15:27:58;;;;;;;19.50;4.82;;;;;;;18.28;100.00;101251.00;10532621;28;20668;-82
2024/01/18 15:33:21;;;;;;;18.85;3.67;;;;;;;18.22;100.00;101243.03;10520305;28;20044;-80
2024/01/18 15:38:43;;;;;;;19.65;4.57;;;;;;;18.15;100.00;101257.34;10526056;28;20110;-80
2024/01/18 15:44:07;;;;;;;25.80;4.82;;;;;;;18.12;100.00;101273.38;10531672;28;20067;-82
2024/01/18 15:49:30;;;;;;;21.63;5.38;;;;;;;18.03;100.00;101255.66;10530245;28;20056;-79
2024/01/18 15:54:53;;;;;;;22.48;6.22;;;;;;;18.07;100.00;101241.38;10528645;28;20048;-82
2024/01/18 16:00:18;;;;;;;19.10;4.32;;;;;;;18.03;100.00;101270.81;10546182;28;20040;-80
2024/01/18 16:05:41;;;;;;;24.83;4.82;;;;;;;18.03;100.00;101293.06;10525427;28;20062;-81
2024/01/18 16:11:04;;;;;;;26.58;5.63;;;;;;;18.04;100.00;101307.31;10516808;28;20110;-78
2024/01/18 16:16:28;;;;;;;29.17;5.95;;;;;;;17.99;100.00;101315.34;10530483;28;20047;-80
2024/01/18 16:21:51;;;;;;;20.08;5.47;;;;;;;18.02;100.00;101295.75;10522155;28;20044;-78
2024/01/18 16:27:13;;;;;;;26.65;4.85;;;;;;;18.04;100.00;101316.22;10509928;28;20131;-78
2024/01/18 16:32:38;;;;;;;33.60;6.05;;;;;;;18.00;100.00;101317.13;10527236;28;20475;-78
2024/01/18 16:38:00;;;;;;;22.33;4.70;;;;;;;18.01;100.00;101337.59;10513855;28;20048;-78
2024/01/18 16:43:23;;;;;;;27.25;5.15;;;;;;;17.94;100.00;101322.50;10519716;28;20052;-78
2024/01/18 16:48:47;;;;;;;22.95;4.38;;;;;;;17.90;100.00;101326.09;10528222;28;20047;-78
2024/01/18 16:54:10;;;;;;;25.92;5.90;;;;;;;17.92;100.00;101313.59;10516430;28;20059;-79
2024/01/18 16:59:32;;;;;;;18.20;3.80;;;;;;;17.92;100.00;101310.94;10527469;28;20051;-78
2024/01/18 17:04:56;;;;;;;23.00;5.32;;;;;;;17.96;100.00;101325.16;10528829;28;20047;-77
2024/01/18 17:10:19;;;;;;;24.38;5.25;;;;;;;17.93;100.00;101320.72;10541592;28;20052;-80
2024/01/18 17:15:41;;;;;;;17.73;4.53;;;;;;;17.92;100.00;101321.59;10509068;28;20056;-81
2024/01/18 17:21:06;;;;;;;26.40;5.88;;;;;;;17.86;100.00;101301.16;10522670;28;20056;-78
2024/01/18 17:26:28;;;;;;;22.40;5.13;;;;;;;17.89;100.00;101310.97;10503172;28;20051;-82
2024/01/18 17:31:50;;;;;;;22.13;5.10;;;;;;;17.82;100.00;101295.84;10527033;28;20434;-81
2024/01/18 17:37:15;;;;;;;29.17;5.63;;;;;;;17.81;100.00;101300.31;10531335;28;20818;-80
2024/01/18 17:42:38;;;;;;;21.88;5.60;;;;;;;17.84;100.00;101270.94;10502306;28;20088;-78
2024/01/18 17:48:01;;;;;;;19.38;4.45;;;;;;;17.78;100.00;101303.03;10529518;28;20412;-79
2024/01/18 17:53:26;;;;;;;18.92;4.97;;;;;;;17.79;100.00;101291.41;10493392;28;20515;-81
2024/01/18 17:58:48;;;;;;;25.65;4.22;;;;;;;17.82;100.00;101288.75;10500461;28;20052;-78
2024/01/18 18:04:11;;;;;;;21.20;4.93;;;;;;;17.79;100.00;101282.50;10493141;28;20047;-81
2024/01/18 18:09:35;;;;;;;26.15;5.88;;;;;;;17.74;100.00;101300.34;10516395;28;20059;-79
2024/01/18 18:14:58;;;;;;;27.15;5.43;;;;;;;17.84;100.00;101308.31;10536678;28;20684;-79
2024/01/18 18:20:20;;;;;;;16.25;4.22;;;;;;;17.88;100.00;101301.16;10531290;28;20052;-79
2024/01/18 18:25:44;;;;;;;22.02;4.85;;;;;;;17.82;100.00;101303.88;10524975;28;20044;-79
2024/01/18 18:31:09;;;;;;;14.93;4.13;;;;;;;17.83;100.00;101292.31;10539881;28;20059;-79
2024/01/18 18:36:32;;;;;;;16.40;4.10;;;;;;;17.83;100.00;101300.31;10554886;28;20063;-78
2024/01/18 18:41:56;;;;;;;19.40;4.25;;;;;;;17.82;100.00;101319.91;10525290;28;20056;-78
2024/01/18 18:47:19;;;;;;;14.32;4.15;;;;;;;17.80;100.00;101325.25;10523548;28;20059;-78
2024/01/18 18:52:41;;;;;;;19.55;4.88;;;;;;;17.72;100.00;101297.69;10523543;28;20044;-78
2024/01/18 18:58:05;;;;;;;15.65;4.28;;;;;;;17.80;100.00;101282.50;10525010;28;20044;-78
2024/01/18 19:03:28;;;;;;;19.23;4.20;;;;;;;17.80;100.00;101294.97;10523033;28;20135;-78
2024/01/18 19:08:51;;;;;;;22.70;5.10;;;;;;;17.81;100.00;101310.09;10537253;28;20101;-78
2024/01/18 19:14:15;;;;;;;20.65;5.03;;;;;;;17.81;100.00;101283.41;10536972;28;20094;-79
2024/01/18 19:19:37;;;;;;;18.10;5.05;;;;;;;17.78;100.00;101299.47;10498724;28;20087;-77
2024/01/18 19:25:00;;;;;;;19.45;4.13;;;;;;;17.79;100.00;101274.50;10505050;28;20036;-80
2024/01/18 19:30:24;;;;;;;14.25;4.25;;;;;;;17.70;100.00;101274.56;10496834;28;20081;-80
2024/01/18 19:35:46;;;;;;;17.25;3.53;;;;;;;17.72;100.00;101275.47;10524232;28;20071;-81
2024/01/18 19:41:10;;;;;;;15.60;4.00;;;;;;;17.74;100.00;101254.94;10532668;28;20055;-79
2024/01/18 19:46:52;;;;;;;16.30;3.95;;;;;;;17.72;100.00;101262.09;10599707;27;20407;-81
2024/01/18 19:52:15;;;;;;;12.48;4.00;;;;;;;17.67;100.00;101247.88;10577540;27;20047;-81
2024/01/18 19:57:37;;;;;;;18.73;4.57;;;;;;;17.60;100.00;101264.78;10610362;27;20051;-80
2024/01/18 20:03:01;;;;;;;22.98;4.28;;;;;;;17.59;100.00;101236.31;10596217;27;20054;-80
2024/01/18 20:08:25;;;;;;;17.90;4.30;;;;;;;17.57;100.00;101241.66;10605550;27;20055;-80
2024/01/18 20:13:48;;;;;;;20.17;4.78;;;;;;;17.57;100.00;101220.31;10595319;27;20054;-81
2024/01/18 20:19:12;;;;;;;19.67;4.13;;;;;;;17.51;100.00;101231.03;10580460;27;20531;-81
2024/01/18 20:24:35;;;;;;;14.60;3.78;;;;;;;17.52;100.00;101241.66;10585951;28;20059;-81
2024/01/18 20:29:59;;;;;;;15.05;4.22;;;;;;;17.50;100.00;101223.91;10608614;27;20436;-80
2024/01/18 20:35:23;;;;;;;20.90;4.82;;;;;;;17.50;100.00;101222.13;10610149;28;20051;-80
2024/01/18 20:40:45;;;;;;;11.35;4.55;;;;;;;17.46;100.00;101212.34;10569934;28;20100;-80
2024/01/18 20:46:08;;;;;;;20.35;5.55;;;;;;;17.51;100.00;101185.63;10608127;27;20048;-81
2024/01/18 20:51:32;;;;;;;25.15;5.65;;;;;;;17.44;100.00;101222.16;10607871;28;20069;-81
2024/01/18 20:56:55;;;;;;;22.55;5.00;;;;;;;17.44;100.00;101179.44;10579538;28;20050;-81
2024/01/18 21:02:17;;;;;;;14.70;4.30;;;;;;;17.45;100.00;101199.03;10577635;28;20176;-81
2024/01/18 21:07:41;;;;;;;21.70;5.30;;;;;;;17.42;100.00;101183.91;10561422;27;20055;-80
2024/01/18 21:13:03;;;;;;;15.68;5.70;;;;;;;17.45;100.00;101181.22;10560069;28;20512;-82
2024/01/18 21:18:27;;;;;;;16.00;4.40;;;;;;;17.43;100.00;101195.47;10594988;27;20048;-81
2024/01/18 21:23:51;;;;;;;16.48;4.18;;;;;;;17.39;100.00;101183.91;10598360;27;20141;-81
2024/01/18 21:29:14;;;;;;;16.48;4.15;;;;;;;17.34;100.00;101192.84;10575073;27;20079;-81
2024/01/18 21:34:36;;;;;;;12.40;3.95;;;;;;;17.41;100.00;101189.25;10534985;28;20051;-80
2024/01/18 21:40:00;;;;;;;14.07;3.45;;;;;;;17.39;100.00;101186.56;10573804;28;20052;-80
2024/01/18 21:45:23;;;;;;;17.98;3.95;;;;;;;17.37;100.00;101185.72;10555595;28;20071;-82
2024/01/18 21:50:45;;;;;;;19.35;4.60;;;;;;;17.36;100.00;101175.94;10576612;28;20142;-83
2024/01/18 21:56:09;;;;;;;9.10;2.95;;;;;;;17.41;100.00;101206.16;10564934;28;20600;-82
2024/01/18 22:01:32;;;;;;;13.02;2.55;;;;;;;17.45;100.00;101193.69;10555249;27;20051;-82
2024/01/18 22:06:54;;;;;;;20.08;3.38;;;;;;;17.35;100.00;101203.50;10535170;28;20071;-82
2024/01/18 22:12:18;;;;;;;10.13;3.53;;;;;;;17.27;100.00;101204.44;10522502;28;20055;-84
2024/01/18 22:17:40;;;;;;;16.05;4.32;;;;;;;17.25;100.00;101222.25;10633689;27;20062;-81
2024/01/18 22:23:03;;;;;;;11.23;2.70;;;;;;;17.18;100.00;101208.06;10579849;27;20043;-82
2024/01/18 22:28:27;;;;;;;17.33;3.72;;;;;;;17.17;100.00;101200.94;10592174;27;20050;-82
2024/01/18 22:33:50;;;;;;;13.85;3.05;;;;;;;17.20;100.00;101202.72;10549161;28;20056;-81
2024/01/18 22:39:12;;;;;;;13.68;3.35;;;;;;;17.17;100.00;101192.94;10590401;27;20052;-84
2024/01/18 22:44:36;;;;;;;14.57;3.05;;;;;;;17.21;100.00;101196.47;10590598;27;20105;-82
2024/01/18 22:49:59;;;;;;;18.20;3.78;;;;;;;17.23;100.00;101200.00;10591542;27;20533;-81
2024/01/18 22:55:21;;;;;;;17.55;3.42;;;;;;;17.23;100.00;101190.22;10561443;28;20047;-82
2024/01/18 23:00:46;;;;;;;12.98;3.55;;;;;;;17.18;100.00;101197.38;10570294;28;20043;-82
2024/01/18 23:06:08;;;;;;;14.88;2.88;;;;;;;17.23;100.00;101205.34;10588640;27;20113;-81
2024/01/18 23:11:31;;;;;;;16.75;3.00;;;;;;;17.23;100.00;101203.56;10574984;28;20039;-81
2024/01/18 23:16:54;;;;;;;13.85;2.83;;;;;;;17.14;100.00;101201.81;10562108;28;20055;-83
2024/01/18 23:22:17;;;;;;;17.90;3.25;;;;;;;17.20;100.00;101190.22;10577284;28;20056;-84
2024/01/18 23:27:39;;;;;;;11.75;2.65;;;;;;;17.23;100.00;101214.25;10565563;28;20740;-82
2024/01/18 23:33:04;;;;;;;14.43;2.72;;;;;;;17.22;100.00;101203.56;10547400;28;20070;-83
2024/01/18 23:38:27;;;;;;;10.68;2.45;;;;;;;17.37;100.00;101201.72;10534197;28;20109;-83
2024/01/18 23:43:49;;;;;;;6.43;2.40;;;;;;;17.32;100.00;101162.63;10550374;28;20075;-82
2024/01/18 23:49:14;;;;;;;13.57;2.65;;;;;;;17.41;100.00;101173.22;10561815;28;20044;-84
2024/01/18 23:54:36;;;;;;;9.50;1.88;;;;;;;17.40;100.00;101172.34;10547359;28;20043;-83
2024/01/18 23:59:59;;;;;;;11.00;2.50;;;;;;;17.33;100.00;101159.03;10561179;28;20044;-83
